sensor_id;sensor_type;location;lat;lon;timestamp;pressure;altitude;pressure_sealevel;temperature;humidity
30598;BME280;17365;48.878;8.334;2023-07-20T00:01:11;99954.69;;;21.24;46.78
30598;BME280;17365;48.878;8.334;2023-07-20T00:03:36;99960.78;;;20.85;48.15
30598;BME280;17365;48.878;8.334;2023-07-20T00:06:01;99959.72;;;21.10;46.93
30598;BME280;17365;48.878;8.334;2023-07-20T00:08:26;99958.84;;;21.09;47.39
30598;BME280;17365;48.878;8.334;2023-07-20T00:10:51;99961.63;;;21.27;47.00
30598;BME280;17365;48.878;8.334;2023-07-20T00:13:17;99964.31;;;21.05;47.90
30598;BME280;17365;48.878;8.334;2023-07-20T00:15:43;99961.00;;;20.59;48.79
30598;BME280;17365;48.878;8.334;2023-07-20T00:18:09;99961.56;;;20.87;48.27
30598;BME280;17365;48.878;8.334;2023-07-20T00:20:34;99962.59;;;21.24;46.95
30598;BME280;17365;48.878;8.334;2023-07-20T00:22:59;99969.19;;;20.93;48.33
30598;BME280;17365;48.878;8.334;2023-07-20T00:25:24;99967.16;;;21.00;47.89
30598;BME280;17365;48.878;8.334;2023-07-20T00:27:50;99962.56;;;20.85;48.92
30598;BME280;17365;48.878;8.334;2023-07-20T00:30:15;99972.81;;;20.71;49.25
30598;BME280;17365;48.878;8.334;2023-07-20T00:32:41;99963.81;;;20.76;48.98
30598;BME280;17365;48.878;8.334;2023-07-20T00:35:06;99968.91;;;20.59;50.03
30598;BME280;17365;48.878;8.334;2023-07-20T00:37:32;99963.06;;;20.52;49.87
30598;BME280;17365;48.878;8.334;2023-07-20T00:39:57;99961.47;;;20.69;49.48
30598;BME280;17365;48.878;8.334;2023-07-20T00:42:22;99965.84;;;20.48;50.60
30598;BME280;17365;48.878;8.334;2023-07-20T00:44:47;99972.97;;;20.46;50.40
30598;BME280;17365;48.878;8.334;2023-07-20T00:47:12;99964.88;;;20.28;50.86
30598;BME280;17365;48.878;8.334;2023-07-20T00:49:38;99964.84;;;19.85;52.20
30598;BME280;17365;48.878;8.334;2023-07-20T00:52:03;99970.69;;;20.15;51.39
30598;BME280;17365;48.878;8.334;2023-07-20T00:54:31;99961.50;;;20.03;52.00
30598;BME280;17365;48.878;8.334;2023-07-20T00:56:57;99962.91;;;20.12;51.57
30598;BME280;17365;48.878;8.334;2023-07-20T00:59:23;99964.50;;;20.16;51.69
30598;BME280;17365;48.878;8.334;2023-07-20T01:01:49;99959.78;;;20.24;51.58
30598;BME280;17365;48.878;8.334;2023-07-20T01:04:14;99959.41;;;20.11;51.81
30598;BME280;17365;48.878;8.334;2023-07-20T01:09:20;99960.47;;;20.07;52.54
30598;BME280;17365;48.878;8.334;2023-07-20T01:11:57;99961.41;;;20.06;52.32
30598;BME280;17365;48.878;8.334;2023-07-20T01:14:23;99973.28;;;19.93;52.90
30598;BME280;17365;48.878;8.334;2023-07-20T01:16:49;99959.34;;;19.91;53.00
30598;BME280;17365;48.878;8.334;2023-07-20T01:19:17;99965.72;;;19.85;53.98
30598;BME280;17365;48.878;8.334;2023-07-20T01:29:22;99963.44;;;19.76;54.39
30598;BME280;17365;48.878;8.334;2023-07-20T01:31:52;99953.97;;;19.47;55.60
30598;BME280;17365;48.878;8.334;2023-07-20T01:34:19;99955.69;;;19.48;56.15
30598;BME280;17365;48.878;8.334;2023-07-20T01:36:45;99955.97;;;19.40;56.31
30598;BME280;17365;48.878;8.334;2023-07-20T01:39:11;99967.69;;;19.32;57.12
30598;BME280;17365;48.878;8.334;2023-07-20T01:41:36;99949.66;;;19.44;56.06
30598;BME280;17365;48.878;8.334;2023-07-20T01:44:03;99961.56;;;19.31;56.92
30598;BME280;17365;48.878;8.334;2023-07-20T01:46:28;99966.13;;;19.01;58.57
30598;BME280;17365;48.878;8.334;2023-07-20T01:48:53;99963.63;;;18.73;59.72
30598;BME280;17365;48.878;8.334;2023-07-20T01:51:19;99956.28;;;18.83;59.56
30598;BME280;17365;48.878;8.334;2023-07-20T01:53:44;99958.84;;;18.84;59.13
30598;BME280;17365;48.878;8.334;2023-07-20T01:56:10;99960.56;;;18.85;59.20
30598;BME280;17365;48.878;8.334;2023-07-20T01:58:37;99949.25;;;18.83;59.18
30598;BME280;17365;48.878;8.334;2023-07-20T02:01:02;99959.03;;;18.78;59.22
30598;BME280;17365;48.878;8.334;2023-07-20T02:03:27;99951.09;;;18.80;59.10
30598;BME280;17365;48.878;8.334;2023-07-20T02:05:53;99951.50;;;18.69;59.68
30598;BME280;17365;48.878;8.334;2023-07-20T02:08:18;99953.66;;;18.83;58.92
30598;BME280;17365;48.878;8.334;2023-07-20T02:10:45;99955.50;;;18.79;59.17
30598;BME280;17365;48.878;8.334;2023-07-20T02:13:10;99953.09;;;18.47;60.82
30598;BME280;17365;48.878;8.334;2023-07-20T02:15:35;99955.66;;;18.48;60.48
30598;BME280;17365;48.878;8.334;2023-07-20T02:18:00;99948.22;;;18.34;61.02
30598;BME280;17365;48.878;8.334;2023-07-20T02:20:26;99960.69;;;18.54;60.46
30598;BME280;17365;48.878;8.334;2023-07-20T02:22:52;99954.03;;;18.44;61.12
30598;BME280;17365;48.878;8.334;2023-07-20T02:25:17;99951.63;;;18.38;61.30
30598;BME280;17365;48.878;8.334;2023-07-20T02:27:42;99948.44;;;18.28;61.88
30598;BME280;17365;48.878;8.334;2023-07-20T02:30:08;99946.16;;;18.18;62.51
30598;BME280;17365;48.878;8.334;2023-07-20T02:32:34;99947.13;;;18.15;62.74
30598;BME280;17365;48.878;8.334;2023-07-20T02:34:59;99951.75;;;18.07;62.60
30598;BME280;17365;48.878;8.334;2023-07-20T02:37:25;99953.75;;;18.27;61.92
30598;BME280;17365;48.878;8.334;2023-07-20T02:39:50;99951.34;;;18.46;60.97
30598;BME280;17365;48.878;8.334;2023-07-20T02:42:15;99957.28;;;18.26;61.80
30598;BME280;17365;48.878;8.334;2023-07-20T02:44:40;99955.06;;;18.40;61.40
30598;BME280;17365;48.878;8.334;2023-07-20T02:47:05;99949.06;;;18.09;62.46
30598;BME280;17365;48.878;8.334;2023-07-20T02:49:31;99948.16;;;18.10;62.95
30598;BME280;17365;48.878;8.334;2023-07-20T02:51:56;99954.31;;;18.09;63.04
30598;BME280;17365;48.878;8.334;2023-07-20T02:54:21;99951.41;;;18.18;62.53
30598;BME280;17365;48.878;8.334;2023-07-20T02:56:46;99951.91;;;18.02;63.20
30598;BME280;17365;48.878;8.334;2023-07-20T02:59:12;99957.44;;;17.93;63.33
30598;BME280;17365;48.878;8.334;2023-07-20T03:01:37;99957.16;;;18.02;63.37
30598;BME280;17365;48.878;8.334;2023-07-20T03:04:02;99962.28;;;18.06;62.88
30598;BME280;17365;48.878;8.334;2023-07-20T03:06:29;99955.59;;;17.95;62.99
30598;BME280;17365;48.878;8.334;2023-07-20T03:08:54;99958.38;;;17.91;63.15
30598;BME280;17365;48.878;8.334;2023-07-20T03:11:19;99957.91;;;17.78;63.70
30598;BME280;17365;48.878;8.334;2023-07-20T03:13:45;99960.00;;;17.95;62.94
30598;BME280;17365;48.878;8.334;2023-07-20T03:16:12;99962.69;;;17.93;62.96
30598;BME280;17365;48.878;8.334;2023-07-20T03:18:41;99959.16;;;17.94;63.25
30598;BME280;17365;48.878;8.334;2023-07-20T03:21:07;99959.16;;;17.94;63.26
30598;BME280;17365;48.878;8.334;2023-07-20T03:23:32;99964.78;;;17.82;63.80
30598;BME280;17365;48.878;8.334;2023-07-20T03:25:57;99964.41;;;17.94;63.26
30598;BME280;17365;48.878;8.334;2023-07-20T03:28:23;99968.09;;;17.87;63.65
30598;BME280;17365;48.878;8.334;2023-07-20T03:30:56;99967.97;;;17.92;63.69
30598;BME280;17365;48.878;8.334;2023-07-20T03:33:25;99967.19;;;17.88;64.06
30598;BME280;17365;48.878;8.334;2023-07-20T03:35:50;99972.50;;;17.87;64.11
30598;BME280;17365;48.878;8.334;2023-07-20T03:38:15;99970.56;;;17.93;63.59
30598;BME280;17365;48.878;8.334;2023-07-20T03:40:48;99971.03;;;17.78;64.24
30598;BME280;17365;48.878;8.334;2023-07-20T03:43:13;99976.13;;;17.83;64.42
30598;BME280;17365;48.878;8.334;2023-07-20T03:45:39;99969.44;;;17.72;64.83
30598;BME280;17365;48.878;8.334;2023-07-20T03:48:04;99972.97;;;17.71;64.75
30598;BME280;17365;48.878;8.334;2023-07-20T03:50:30;99977.88;;;17.82;64.61
30598;BME280;17365;48.878;8.334;2023-07-20T03:52:56;99982.28;;;17.82;64.39
30598;BME280;17365;48.878;8.334;2023-07-20T03:55:21;99982.44;;;17.75;64.84
30598;BME280;17365;48.878;8.334;2023-07-20T03:57:46;99986.34;;;17.92;64.06
30598;BME280;17365;48.878;8.334;2023-07-20T04:00:11;99976.97;;;17.83;64.31
30598;BME280;17365;48.878;8.334;2023-07-20T04:02:39;99982.38;;;17.79;64.79
30598;BME280;17365;48.878;8.334;2023-07-20T04:05:04;99985.56;;;17.88;64.47
30598;BME280;17365;48.878;8.334;2023-07-20T04:07:30;99981.16;;;17.89;64.51
30598;BME280;17365;48.878;8.334;2023-07-20T04:09:55;99993.03;;;17.72;65.05
30598;BME280;17365;48.878;8.334;2023-07-20T04:12:20;99987.38;;;17.55;65.80
30598;BME280;17365;48.878;8.334;2023-07-20T04:14:45;99985.84;;;17.79;64.92
30598;BME280;17365;48.878;8.334;2023-07-20T04:17:10;99993.00;;;17.74;65.31
30598;BME280;17365;48.878;8.334;2023-07-20T04:19:38;99980.25;;;17.91;64.61
30598;BME280;17365;48.878;8.334;2023-07-20T04:22:03;99984.66;;;17.89;64.87
30598;BME280;17365;48.878;8.334;2023-07-20T04:24:28;99982.81;;;17.93;64.77
30598;BME280;17365;48.878;8.334;2023-07-20T04:26:53;99989.63;;;17.98;64.32
30598;BME280;17365;48.878;8.334;2023-07-20T04:29:19;99993.97;;;17.99;64.28
30598;BME280;17365;48.878;8.334;2023-07-20T04:31:44;99986.94;;;18.01;64.37
30598;BME280;17365;48.878;8.334;2023-07-20T04:34:09;99992.47;;;17.92;65.29
30598;BME280;17365;48.878;8.334;2023-07-20T04:36:35;99982.97;;;18.43;63.37
30598;BME280;17365;48.878;8.334;2023-07-20T04:39:00;99985.31;;;18.78;61.63
30598;BME280;17365;48.878;8.334;2023-07-20T04:41:25;99983.38;;;19.10;60.68
30598;BME280;17365;48.878;8.334;2023-07-20T04:43:51;99987.88;;;19.06;60.61
30598;BME280;17365;48.878;8.334;2023-07-20T04:46:16;99993.81;;;18.86;61.45
30598;BME280;17365;48.878;8.334;2023-07-20T04:48:43;99996.09;;;18.97;60.68
30598;BME280;17365;48.878;8.334;2023-07-20T04:51:08;99996.41;;;18.88;60.97
30598;BME280;17365;48.878;8.334;2023-07-20T04:53:35;99993.38;;;19.24;60.06
30598;BME280;17365;48.878;8.334;2023-07-20T04:56:00;99988.63;;;19.83;58.50
30598;BME280;17365;48.878;8.334;2023-07-20T04:58:25;99985.09;;;20.06;57.62
30598;BME280;17365;48.878;8.334;2023-07-20T05:00:50;99988.56;;;19.85;57.68
30598;BME280;17365;48.878;8.334;2023-07-20T05:03:16;99981.53;;;19.62;58.90
30598;BME280;17365;48.878;8.334;2023-07-20T05:05:41;99981.22;;;20.36;56.83
30598;BME280;17365;48.878;8.334;2023-07-20T05:08:06;99983.84;;;20.36;56.20
30598;BME280;17365;48.878;8.334;2023-07-20T05:10:31;99986.91;;;20.26;56.49
30598;BME280;17365;48.878;8.334;2023-07-20T05:12:57;99988.13;;;20.62;55.81
30598;BME280;17365;48.878;8.334;2023-07-20T05:15:22;99982.03;;;20.60;54.99
30598;BME280;17365;48.878;8.334;2023-07-20T05:17:47;99978.56;;;20.80;55.01
30598;BME280;17365;48.878;8.334;2023-07-20T05:20:14;99979.50;;;21.20;53.99
30598;BME280;17365;48.878;8.334;2023-07-20T05:22:39;99976.84;;;21.00;53.52
30598;BME280;17365;48.878;8.334;2023-07-20T05:25:08;99974.88;;;21.05;54.44
30598;BME280;17365;48.878;8.334;2023-07-20T05:27:33;99966.16;;;20.82;53.40
30598;BME280;17365;48.878;8.334;2023-07-20T05:29:59;99974.56;;;21.33;53.33
30598;BME280;17365;48.878;8.334;2023-07-20T05:32:24;99984.50;;;20.85;54.17
30598;BME280;17365;48.878;8.334;2023-07-20T05:34:51;99983.19;;;20.75;55.01
30598;BME280;17365;48.878;8.334;2023-07-20T05:37:16;99986.59;;;20.77;54.38
30598;BME280;17365;48.878;8.334;2023-07-20T05:39:41;99983.59;;;20.86;54.37
30598;BME280;17365;48.878;8.334;2023-07-20T05:42:06;99985.78;;;20.97;54.58
30598;BME280;17365;48.878;8.334;2023-07-20T05:44:32;99990.47;;;21.31;53.65
30598;BME280;17365;48.878;8.334;2023-07-20T05:46:57;99991.13;;;20.96;54.42
30598;BME280;17365;48.878;8.334;2023-07-20T05:49:22;99991.75;;;20.80;54.81
30598;BME280;17365;48.878;8.334;2023-07-20T05:51:47;99988.22;;;21.42;53.33
30598;BME280;17365;48.878;8.334;2023-07-20T05:54:13;99982.75;;;21.66;52.58
30598;BME280;17365;48.878;8.334;2023-07-20T05:56:38;99986.56;;;21.96;51.76
30598;BME280;17365;48.878;8.334;2023-07-20T05:59:03;99991.81;;;21.79;52.87
30598;BME280;17365;48.878;8.334;2023-07-20T06:01:28;99988.94;;;22.02;51.88
30598;BME280;17365;48.878;8.334;2023-07-20T06:03:53;99975.69;;;22.23;51.62
30598;BME280;17365;48.878;8.334;2023-07-20T06:06:19;99980.16;;;21.64;52.59
30598;BME280;17365;48.878;8.334;2023-07-20T06:08:44;99995.91;;;21.47;53.72
30598;BME280;17365;48.878;8.334;2023-07-20T06:11:09;99991.00;;;21.58;53.01
30598;BME280;17365;48.878;8.334;2023-07-20T06:13:35;100003.69;;;20.89;55.04
30598;BME280;17365;48.878;8.334;2023-07-20T06:16:00;99995.59;;;21.34;54.42
30598;BME280;17365;48.878;8.334;2023-07-20T06:18:25;99996.63;;;21.50;53.87
30598;BME280;17365;48.878;8.334;2023-07-20T06:20:50;100004.81;;;21.24;55.16
30598;BME280;17365;48.878;8.334;2023-07-20T06:23:16;99999.00;;;21.16;55.23
30598;BME280;17365;48.878;8.334;2023-07-20T06:25:41;99995.97;;;21.25;54.87
30598;BME280;17365;48.878;8.334;2023-07-20T06:28:06;100001.25;;;21.25;55.33
30598;BME280;17365;48.878;8.334;2023-07-20T06:30:33;99999.03;;;21.36;54.64
30598;BME280;17365;48.878;8.334;2023-07-20T06:32:58;99992.81;;;21.37;54.25
30598;BME280;17365;48.878;8.334;2023-07-20T06:35:24;99996.50;;;21.13;54.75
30598;BME280;17365;48.878;8.334;2023-07-20T06:37:50;100002.63;;;20.93;55.17
30598;BME280;17365;48.878;8.334;2023-07-20T06:40:15;99996.78;;;21.27;54.82
30598;BME280;17365;48.878;8.334;2023-07-20T06:42:40;99996.72;;;21.08;55.57
30598;BME280;17365;48.878;8.334;2023-07-20T06:45:05;100002.31;;;21.21;55.13
30598;BME280;17365;48.878;8.334;2023-07-20T06:47:31;99992.94;;;21.14;55.50
30598;BME280;17365;48.878;8.334;2023-07-20T06:49:56;100000.53;;;21.21;55.93
30598;BME280;17365;48.878;8.334;2023-07-20T06:52:21;100000.97;;;20.90;56.61
30598;BME280;17365;48.878;8.334;2023-07-20T06:54:46;100001.63;;;21.16;55.86
30598;BME280;17365;48.878;8.334;2023-07-20T06:57:11;100004.81;;;21.44;55.48
30598;BME280;17365;48.878;8.334;2023-07-20T06:59:37;100002.56;;;21.56;54.73
30598;BME280;17365;48.878;8.334;2023-07-20T07:02:02;100006.88;;;21.38;55.64
30598;BME280;17365;48.878;8.334;2023-07-20T07:04:27;100000.34;;;21.84;54.86
30598;BME280;17365;48.878;8.334;2023-07-20T07:06:53;100002.22;;;21.82;54.60
30598;BME280;17365;48.878;8.334;2023-07-20T07:09:18;100000.22;;;21.68;55.75
30598;BME280;17365;48.878;8.334;2023-07-20T07:11:43;100002.63;;;21.54;55.61
30598;BME280;17365;48.878;8.334;2023-07-20T07:14:09;100003.09;;;22.01;54.44
30598;BME280;17365;48.878;8.334;2023-07-20T07:16:35;100004.88;;;22.20;53.22
30598;BME280;17365;48.878;8.334;2023-07-20T07:19:00;100004.41;;;22.12;53.27
30598;BME280;17365;48.878;8.334;2023-07-20T07:21:25;100011.34;;;21.94;54.32
30598;BME280;17365;48.878;8.334;2023-07-20T07:23:50;100003.25;;;21.98;54.33
30598;BME280;17365;48.878;8.334;2023-07-20T07:26:18;99997.66;;;22.04;53.91
30598;BME280;17365;48.878;8.334;2023-07-20T07:28:43;100005.06;;;21.96;53.84
30598;BME280;17365;48.878;8.334;2023-07-20T07:31:08;99999.38;;;21.87;53.86
30598;BME280;17365;48.878;8.334;2023-07-20T07:33:34;99994.44;;;22.17;54.17
30598;BME280;17365;48.878;8.334;2023-07-20T07:36:00;100000.91;;;22.11;53.80
30598;BME280;17365;48.878;8.334;2023-07-20T07:38:25;99997.03;;;22.54;52.26
30598;BME280;17365;48.878;8.334;2023-07-20T07:40:50;99997.72;;;21.84;54.01
30598;BME280;17365;48.878;8.334;2023-07-20T07:43:15;100002.94;;;22.04;53.40
30598;BME280;17365;48.878;8.334;2023-07-20T07:45:41;100000.81;;;22.13;53.36
30598;BME280;17365;48.878;8.334;2023-07-20T07:48:06;100005.03;;;22.53;52.31
30598;BME280;17365;48.878;8.334;2023-07-20T07:50:32;100001.00;;;22.46;51.82
30598;BME280;17365;48.878;8.334;2023-07-20T07:52:57;100004.22;;;22.70;51.13
30598;BME280;17365;48.878;8.334;2023-07-20T07:55:22;100004.44;;;22.82;49.90
30598;BME280;17365;48.878;8.334;2023-07-20T07:57:49;100004.69;;;23.30;49.69
30598;BME280;17365;48.878;8.334;2023-07-20T08:00:14;99998.63;;;23.10;49.52
30598;BME280;17365;48.878;8.334;2023-07-20T08:02:43;100001.97;;;22.79;50.43
30598;BME280;17365;48.878;8.334;2023-07-20T08:05:08;100004.28;;;23.20;49.90
30598;BME280;17365;48.878;8.334;2023-07-20T08:07:33;99999.38;;;23.47;48.85
30598;BME280;17365;48.878;8.334;2023-07-20T08:09:59;99999.25;;;23.66;48.47
30598;BME280;17365;48.878;8.334;2023-07-20T08:12:25;100004.94;;;23.25;49.08
30598;BME280;17365;48.878;8.334;2023-07-20T08:14:51;99998.47;;;22.96;49.80
30598;BME280;17365;48.878;8.334;2023-07-20T08:17:16;100002.16;;;23.44;49.01
30598;BME280;17365;48.878;8.334;2023-07-20T08:19:41;100002.59;;;23.19;48.74
30598;BME280;17365;48.878;8.334;2023-07-20T08:22:07;99997.97;;;22.89;49.23
30598;BME280;17365;48.878;8.334;2023-07-20T08:24:32;99997.16;;;23.22;49.24
30598;BME280;17365;48.878;8.334;2023-07-20T08:26:58;99993.28;;;23.62;48.75
30598;BME280;17365;48.878;8.334;2023-07-20T08:29:23;99991.38;;;23.64;48.74
30598;BME280;17365;48.878;8.334;2023-07-20T08:31:48;99997.47;;;23.33;48.20
30598;BME280;17365;48.878;8.334;2023-07-20T08:34:14;99998.66;;;23.43;48.31
30598;BME280;17365;48.878;8.334;2023-07-20T08:36:39;99998.13;;;24.03;47.53
30598;BME280;17365;48.878;8.334;2023-07-20T08:39:04;100003.63;;;23.49;47.86
30598;BME280;17365;48.878;8.334;2023-07-20T08:41:29;100000.03;;;23.68;48.18
30598;BME280;17365;48.878;8.334;2023-07-20T08:43:54;100000.28;;;23.63;47.83
30598;BME280;17365;48.878;8.334;2023-07-20T08:46:21;99997.72;;;23.11;48.14
30598;BME280;17365;48.878;8.334;2023-07-20T08:48:47;99997.53;;;22.97;49.31
30598;BME280;17365;48.878;8.334;2023-07-20T08:51:13;99996.78;;;23.63;47.57
30598;BME280;17365;48.878;8.334;2023-07-20T08:53:39;99989.97;;;24.06;46.76
30598;BME280;17365;48.878;8.334;2023-07-20T08:56:04;99983.38;;;24.29;46.17
30598;BME280;17365;48.878;8.334;2023-07-20T08:58:30;99985.47;;;24.39;44.35
30598;BME280;17365;48.878;8.334;2023-07-20T09:00:55;99988.53;;;23.85;45.76
30598;BME280;17365;48.878;8.334;2023-07-20T09:03:21;99994.59;;;24.02;45.47
30598;BME280;17365;48.878;8.334;2023-07-20T09:05:46;99990.22;;;23.86;46.27
30598;BME280;17365;48.878;8.334;2023-07-20T09:08:11;99986.72;;;23.69;46.71
30598;BME280;17365;48.878;8.334;2023-07-20T09:10:36;99987.75;;;23.83;47.01
30598;BME280;17365;48.878;8.334;2023-07-20T09:13:02;99990.63;;;23.78;45.83
30598;BME280;17365;48.878;8.334;2023-07-20T09:15:28;99991.59;;;23.93;46.16
30598;BME280;17365;48.878;8.334;2023-07-20T09:17:53;99989.09;;;24.53;44.14
30598;BME280;17365;48.878;8.334;2023-07-20T09:20:19;99981.84;;;25.01;44.28
30598;BME280;17365;48.878;8.334;2023-07-20T09:22:45;99981.78;;;25.02;42.33
30598;BME280;17365;48.878;8.334;2023-07-20T09:25:14;99993.50;;;24.98;41.49
30598;BME280;17365;48.878;8.334;2023-07-20T09:27:43;99984.50;;;25.31;42.06
30598;BME280;17365;48.878;8.334;2023-07-20T09:30:09;99989.13;;;25.13;41.63
30598;BME280;17365;48.878;8.334;2023-07-20T09:32:39;99987.06;;;25.18;41.85
30598;BME280;17365;48.878;8.334;2023-07-20T09:35:05;99982.53;;;24.28;44.39
30598;BME280;17365;48.878;8.334;2023-07-20T09:37:31;99983.91;;;24.04;44.70
30598;BME280;17365;48.878;8.334;2023-07-20T09:39:57;99973.28;;;24.51;43.70
30598;BME280;17365;48.878;8.334;2023-07-20T09:42:23;99969.78;;;24.35;43.75
30598;BME280;17365;48.878;8.334;2023-07-20T09:44:50;99966.97;;;24.68;42.39
30598;BME280;17365;48.878;8.334;2023-07-20T09:47:21;99966.72;;;24.73;41.42
30598;BME280;17365;48.878;8.334;2023-07-20T09:49:46;99973.38;;;24.18;42.67
30598;BME280;17365;48.878;8.334;2023-07-20T09:52:11;99965.38;;;24.35;41.61
30598;BME280;17365;48.878;8.334;2023-07-20T09:54:38;99961.06;;;25.09;40.27
30598;BME280;17365;48.878;8.334;2023-07-20T09:57:03;99959.94;;;25.27;38.66
30598;BME280;17365;48.878;8.334;2023-07-20T09:59:30;99952.91;;;25.54;39.75
30598;BME280;17365;48.878;8.334;2023-07-20T10:01:57;99962.00;;;25.22;38.83
30598;BME280;17365;48.878;8.334;2023-07-20T10:04:24;99964.03;;;24.58;39.74
30598;BME280;17365;48.878;8.334;2023-07-20T10:06:49;99954.25;;;25.05;39.21
30598;BME280;17365;48.878;8.334;2023-07-20T10:09:17;99948.09;;;25.75;38.88
30598;BME280;17365;48.878;8.334;2023-07-20T10:11:45;99942.78;;;26.02;37.58
30598;BME280;17365;48.878;8.334;2023-07-20T10:14:14;99946.19;;;25.20;38.55
30598;BME280;17365;48.878;8.334;2023-07-20T10:16:43;99937.19;;;25.51;38.20
30598;BME280;17365;48.878;8.334;2023-07-20T10:19:22;99928.16;;;25.54;38.54
30598;BME280;17365;48.878;8.334;2023-07-20T10:21:56;99936.34;;;26.06;38.04
30598;BME280;17365;48.878;8.334;2023-07-20T10:24:22;99938.69;;;25.27;38.53
30598;BME280;17365;48.878;8.334;2023-07-20T10:26:48;99930.06;;;25.52;38.57
30598;BME280;17365;48.878;8.334;2023-07-20T10:29:13;99934.69;;;25.77;38.09
30598;BME280;17365;48.878;8.334;2023-07-20T10:31:40;99926.09;;;26.00;37.29
30598;BME280;17365;48.878;8.334;2023-07-20T10:34:05;99921.38;;;26.18;36.00
30598;BME280;17365;48.878;8.334;2023-07-20T10:36:30;99918.91;;;26.15;36.03
30598;BME280;17365;48.878;8.334;2023-07-20T10:38:56;99909.97;;;26.16;36.62
30598;BME280;17365;48.878;8.334;2023-07-20T10:44:02;99915.97;;;26.59;35.68
30598;BME280;17365;48.878;8.334;2023-07-20T10:46:43;99913.00;;;26.51;36.17
30598;BME280;17365;48.878;8.334;2023-07-20T10:49:12;99909.47;;;26.24;36.36
30598;BME280;17365;48.878;8.334;2023-07-20T10:51:45;99904.25;;;27.02;35.37
30598;BME280;17365;48.878;8.334;2023-07-20T10:56:43;99911.69;;;27.22;33.84
30598;BME280;17365;48.878;8.334;2023-07-20T11:01:44;99906.44;;;26.30;35.42
30598;BME280;17365;48.878;8.334;2023-07-20T11:04:10;99905.53;;;26.17;34.80
30598;BME280;17365;48.878;8.334;2023-07-20T11:06:35;99903.44;;;25.80;34.66
30598;BME280;17365;48.878;8.334;2023-07-20T11:11:29;99891.88;;;25.81;35.66
30598;BME280;17365;48.878;8.334;2023-07-20T11:13:56;99890.84;;;25.84;34.69
30598;BME280;17365;48.878;8.334;2023-07-20T11:16:32;99888.00;;;25.59;35.56
30598;BME280;17365;48.878;8.334;2023-07-20T11:18:58;99887.81;;;25.76;35.04
30598;BME280;17365;48.878;8.334;2023-07-20T11:21:24;99888.91;;;25.31;35.85
30598;BME280;17365;48.878;8.334;2023-07-20T11:23:49;99888.16;;;25.14;36.28
30598;BME280;17365;48.878;8.334;2023-07-20T11:26:15;99891.72;;;24.85;36.17
30598;BME280;17365;48.878;8.334;2023-07-20T11:28:40;99882.84;;;25.14;35.28
30598;BME280;17365;48.878;8.334;2023-07-20T11:31:06;99879.28;;;24.85;35.79
30598;BME280;17365;48.878;8.334;2023-07-20T11:33:31;99878.69;;;24.66;36.60
30598;BME280;17365;48.878;8.334;2023-07-20T11:35:56;99879.97;;;25.60;34.28
30598;BME280;17365;48.878;8.334;2023-07-20T11:38:23;99865.44;;;26.20;32.82
30598;BME280;17365;48.878;8.334;2023-07-20T11:40:48;99866.81;;;26.25;33.13
30598;BME280;17365;48.878;8.334;2023-07-20T11:43:14;99859.38;;;26.57;33.13
30598;BME280;17365;48.878;8.334;2023-07-20T11:45:39;99852.63;;;25.99;33.42
30598;BME280;17365;48.878;8.334;2023-07-20T11:48:05;99855.66;;;25.93;33.13
30598;BME280;17365;48.878;8.334;2023-07-20T11:50:30;99853.84;;;26.21;32.35
30598;BME280;17365;48.878;8.334;2023-07-20T11:52:55;99857.47;;;26.20;32.22
30598;BME280;17365;48.878;8.334;2023-07-20T11:55:21;99861.88;;;25.79;33.02
30598;BME280;17365;48.878;8.334;2023-07-20T11:58:04;99859.88;;;25.69;32.93
30598;BME280;17365;48.878;8.334;2023-07-20T12:00:29;99856.59;;;25.65;33.19
30598;BME280;17365;48.878;8.334;2023-07-20T12:02:55;99847.06;;;25.34;33.13
30598;BME280;17365;48.878;8.334;2023-07-20T12:05:22;99846.81;;;25.66;32.44
30598;BME280;17365;48.878;8.334;2023-07-20T12:07:47;99841.34;;;25.96;31.14
30598;BME280;17365;48.878;8.334;2023-07-20T12:10:15;99833.50;;;26.47;31.21
30598;BME280;17365;48.878;8.334;2023-07-20T12:12:41;99829.25;;;26.69;29.89
30598;BME280;17365;48.878;8.334;2023-07-20T12:15:13;99829.03;;;26.47;31.18
30598;BME280;17365;48.878;8.334;2023-07-20T12:17:45;99838.75;;;26.21;29.87
30598;BME280;17365;48.878;8.334;2023-07-20T12:20:11;99828.50;;;26.80;30.49
30598;BME280;17365;48.878;8.334;2023-07-20T12:22:40;99827.03;;;27.02;30.12
30598;BME280;17365;48.878;8.334;2023-07-20T12:25:06;99819.66;;;26.92;29.90
30598;BME280;17365;48.878;8.334;2023-07-20T12:27:31;99822.00;;;26.46;29.94
30598;BME280;17365;48.878;8.334;2023-07-20T12:29:56;99827.22;;;26.08;28.78
30598;BME280;17365;48.878;8.334;2023-07-20T12:32:22;99815.06;;;26.82;27.20
30598;BME280;17365;48.878;8.334;2023-07-20T12:34:47;99830.81;;;27.23;27.43
30598;BME280;17365;48.878;8.334;2023-07-20T12:37:13;99816.13;;;27.17;27.36
30598;BME280;17365;48.878;8.334;2023-07-20T12:39:38;99817.75;;;26.82;26.91
30598;BME280;17365;48.878;8.334;2023-07-20T12:42:04;99808.94;;;27.43;25.79
30598;BME280;17365;48.878;8.334;2023-07-20T12:44:29;99808.19;;;27.41;26.53
30598;BME280;17365;48.878;8.334;2023-07-20T12:46:55;99808.19;;;26.54;27.23
30598;BME280;17365;48.878;8.334;2023-07-20T12:49:20;99809.00;;;27.05;27.23
30598;BME280;17365;48.878;8.334;2023-07-20T12:51:45;99805.50;;;26.92;26.76
30598;BME280;17365;48.878;8.334;2023-07-20T12:54:10;99795.34;;;27.22;26.61
30598;BME280;17365;48.878;8.334;2023-07-20T12:56:35;99805.19;;;27.09;27.04
30598;BME280;17365;48.878;8.334;2023-07-20T12:59:01;99802.31;;;26.87;27.12
30598;BME280;17365;48.878;8.334;2023-07-20T13:01:27;99789.91;;;27.24;26.79
30598;BME280;17365;48.878;8.334;2023-07-20T13:03:52;99788.06;;;27.37;26.14
30598;BME280;17365;48.878;8.334;2023-07-20T13:06:19;99787.41;;;26.72;26.72
30598;BME280;17365;48.878;8.334;2023-07-20T13:08:44;99786.56;;;26.71;26.52
30598;BME280;17365;48.878;8.334;2023-07-20T13:11:10;99787.81;;;27.04;26.50
30598;BME280;17365;48.878;8.334;2023-07-20T13:13:35;99785.03;;;27.05;25.74